sensor_id;sensor_type;location;lat;lon;timestamp;P1;durP1;ratioP1;P2;durP2;ratioP2
13228;SDS011;6680;53.220;10.402;2023-08-30T00:01:21;3.27;;;2.80;;
13228;SDS011;6680;53.220;10.402;2023-08-30T00:03:49;2.60;;;2.40;;
13228;SDS011;6680;53.220;10.402;2023-08-30T00:06:16;3.10;;;2.90;;
13228;SDS011;6680;53.220;10.402;2023-08-30T00:08:44;2.40;;;2.20;;
13228;SDS011;6680;53.220;10.402;2023-08-30T00:11:10;2.63;;;2.17;;
13228;SDS011;6680;53.220;10.402;2023-08-30T00:13:37;2.77;;;2.33;;
13228;SDS011;6680;53.220;10.402;2023-08-30T00:16:04;2.97;;;2.57;;
13228;SDS011;6680;53.220;10.402;2023-08-30T00:18:31;2.63;;;2.43;;
13228;SDS011;6680;53.220;10.402;2023-08-30T00:21:00;2.53;;;2.33;;
13228;SDS011;6680;53.220;10.402;2023-08-30T00:23:26;2.67;;;2.47;;
13228;SDS011;6680;53.220;10.402;2023-08-30T00:25:53;3.40;;;2.40;;
13228;SDS011;6680;53.220;10.402;2023-08-30T00:28:20;2.60;;;2.40;;
13228;SDS011;6680;53.220;10.402;2023-08-30T00:30:52;2.93;;;2.37;;
13228;SDS011;6680;53.220;10.402;2023-08-30T00:33:19;2.50;;;2.30;;
13228;SDS011;6680;53.220;10.402;2023-08-30T00:35:46;3.00;;;2.70;;
13228;SDS011;6680;53.220;10.402;2023-08-30T00:38:14;2.47;;;2.27;;
13228;SDS011;6680;53.220;10.402;2023-08-30T00:40:41;4.17;;;2.77;;
13228;SDS011;6680;53.220;10.402;2023-08-30T00:43:08;2.40;;;2.20;;
13228;SDS011;6680;53.220;10.402;2023-08-30T00:45:34;4.17;;;2.40;;
13228;SDS011;6680;53.220;10.402;2023-08-30T00:48:06;3.17;;;2.93;;
13228;SDS011;6680;53.220;10.402;2023-08-30T00:50:33;2.27;;;2.10;;
13228;SDS011;6680;53.220;10.402;2023-08-30T00:53:00;2.50;;;2.30;;
13228;SDS011;6680;53.220;10.402;2023-08-30T00:55:31;3.33;;;2.40;;
13228;SDS011;6680;53.220;10.402;2023-08-30T00:57:59;2.83;;;2.63;;
13228;SDS011;6680;53.220;10.402;2023-08-30T01:00:27;2.70;;;2.50;;
13228;SDS011;6680;53.220;10.402;2023-08-30T01:02:54;4.33;;;2.80;;
13228;SDS011;6680;53.220;10.402;2023-08-30T01:05:21;3.23;;;2.23;;
13228;SDS011;6680;53.220;10.402;2023-08-30T01:07:48;3.00;;;2.57;;
13228;SDS011;6680;53.220;10.402;2023-08-30T01:10:16;2.60;;;2.40;;
13228;SDS011;6680;53.220;10.402;2023-08-30T01:12:45;3.20;;;2.50;;
13228;SDS011;6680;53.220;10.402;2023-08-30T01:15:15;2.67;;;2.47;;
13228;SDS011;6680;53.220;10.402;2023-08-30T01:17:45;2.70;;;2.50;;
13228;SDS011;6680;53.220;10.402;2023-08-30T01:20:14;2.73;;;2.40;;
13228;SDS011;6680;53.220;10.402;2023-08-30T01:22:45;4.67;;;3.07;;
13228;SDS011;6680;53.220;10.402;2023-08-30T01:25:24;2.73;;;2.53;;
13228;SDS011;6680;53.220;10.402;2023-08-30T01:27:59;2.40;;;2.20;;
13228;SDS011;6680;53.220;10.402;2023-08-30T01:30:29;2.67;;;2.47;;
13228;SDS011;6680;53.220;10.402;2023-08-30T01:32:58;2.87;;;2.47;;
13228;SDS011;6680;53.220;10.402;2023-08-30T01:35:26;4.83;;;2.80;;
13228;SDS011;6680;53.220;10.402;2023-08-30T01:37:57;3.13;;;2.40;;
13228;SDS011;6680;53.220;10.402;2023-08-30T01:40:25;4.10;;;2.73;;
13228;SDS011;6680;53.220;10.402;2023-08-30T01:42:54;3.13;;;2.77;;
13228;SDS011;6680;53.220;10.402;2023-08-30T01:45:24;3.17;;;2.63;;
13228;SDS011;6680;53.220;10.402;2023-08-30T01:47:52;3.00;;;2.70;;
13228;SDS011;6680;53.220;10.402;2023-08-30T01:50:20;2.67;;;2.47;;
13228;SDS011;6680;53.220;10.402;2023-08-30T01:52:48;3.97;;;2.87;;
13228;SDS011;6680;53.220;10.402;2023-08-30T01:55:15;2.43;;;2.23;;
13228;SDS011;6680;53.220;10.402;2023-08-30T01:57:46;3.70;;;2.80;;
13228;SDS011;6680;53.220;10.402;2023-08-30T02:00:13;2.93;;;2.70;;
13228;SDS011;6680;53.220;10.402;2023-08-30T02:02:42;2.90;;;2.60;;
13228;SDS011;6680;53.220;10.402;2023-08-30T02:05:09;4.10;;;2.73;;
13228;SDS011;6680;53.220;10.402;2023-08-30T02:07:38;4.00;;;2.43;;
13228;SDS011;6680;53.220;10.402;2023-08-30T02:10:10;4.00;;;2.60;;
13228;SDS011;6680;53.220;10.402;2023-08-30T02:12:42;2.70;;;2.50;;
13228;SDS011;6680;53.220;10.402;2023-08-30T02:15:13;2.87;;;2.67;;
13228;SDS011;6680;53.220;10.402;2023-08-30T02:17:43;3.57;;;2.80;;
13228;SDS011;6680;53.220;10.402;2023-08-30T02:20:11;3.10;;;2.80;;
13228;SDS011;6680;53.220;10.402;2023-08-30T02:22:38;3.00;;;2.80;;
13228;SDS011;6680;53.220;10.402;2023-08-30T02:25:05;4.83;;;2.43;;
13228;SDS011;6680;53.220;10.402;2023-08-30T02:27:33;3.43;;;3.13;;
13228;SDS011;6680;53.220;10.402;2023-08-30T02:30:00;3.27;;;2.93;;
13228;SDS011;6680;53.220;10.402;2023-08-30T02:32:28;5.13;;;3.17;;
13228;SDS011;6680;53.220;10.402;2023-08-30T02:34:56;3.13;;;2.80;;
13228;SDS011;6680;53.220;10.402;2023-08-30T02:37:23;2.97;;;2.77;;
13228;SDS011;6680;53.220;10.402;2023-08-30T02:39:50;3.00;;;2.70;;
13228;SDS011;6680;53.220;10.402;2023-08-30T02:42:17;2.90;;;2.70;;
13228;SDS011;6680;53.220;10.402;2023-08-30T02:44:44;3.20;;;2.90;;
13228;SDS011;6680;53.220;10.402;2023-08-30T02:47:10;2.80;;;2.60;;
13228;SDS011;6680;53.220;10.402;2023-08-30T02:49:37;2.60;;;2.40;;
13228;SDS011;6680;53.220;10.402;2023-08-30T02:52:06;3.10;;;2.80;;
13228;SDS011;6680;53.220;10.402;2023-08-30T02:54:32;3.30;;;3.00;;
13228;SDS011;6680;53.220;10.402;2023-08-30T02:56:59;3.20;;;2.90;;
13228;SDS011;6680;53.220;10.402;2023-08-30T02:59:26;3.60;;;3.30;;
13228;SDS011;6680;53.220;10.402;2023-08-30T03:01:53;3.03;;;2.83;;
13228;SDS011;6680;53.220;10.402;2023-08-30T03:04:20;3.90;;;3.27;;
13228;SDS011;6680;53.220;10.402;2023-08-30T03:06:47;3.77;;;3.40;;
13228;SDS011;6680;53.220;10.402;2023-08-30T03:09:16;3.50;;;3.20;;
13228;SDS011;6680;53.220;10.402;2023-08-30T03:11:43;4.03;;;3.23;;
13228;SDS011;6680;53.220;10.402;2023-08-30T03:14:10;4.93;;;3.00;;
13228;SDS011;6680;53.220;10.402;2023-08-30T03:16:36;4.10;;;3.17;;
13228;SDS011;6680;53.220;10.402;2023-08-30T03:19:03;4.20;;;2.63;;
13228;SDS011;6680;53.220;10.402;2023-08-30T03:21:30;3.20;;;2.90;;
13228;SDS011;6680;53.220;10.402;2023-08-30T03:23:57;2.83;;;2.63;;
13228;SDS011;6680;53.220;10.402;2023-08-30T03:26:25;3.83;;;2.60;;
13228;SDS011;6680;53.220;10.402;2023-08-30T03:28:52;2.67;;;2.47;;
13228;SDS011;6680;53.220;10.402;2023-08-30T03:31:19;3.10;;;2.90;;
13228;SDS011;6680;53.220;10.402;2023-08-30T03:33:47;3.40;;;3.10;;
13228;SDS011;6680;53.220;10.402;2023-08-30T03:36:15;2.97;;;2.77;;
13228;SDS011;6680;53.220;10.402;2023-08-30T03:38:43;3.27;;;2.97;;
13228;SDS011;6680;53.220;10.402;2023-08-30T03:41:10;4.10;;;3.00;;
13228;SDS011;6680;53.220;10.402;2023-08-30T03:43:39;3.77;;;2.60;;
13228;SDS011;6680;53.220;10.402;2023-08-30T03:46:06;3.33;;;2.77;;
13228;SDS011;6680;53.220;10.402;2023-08-30T03:48:34;3.10;;;2.90;;
13228;SDS011;6680;53.220;10.402;2023-08-30T03:51:01;3.13;;;2.57;;
13228;SDS011;6680;53.220;10.402;2023-08-30T03:53:27;2.87;;;2.67;;
13228;SDS011;6680;53.220;10.402;2023-08-30T03:55:55;3.47;;;3.00;;
13228;SDS011;6680;53.220;10.402;2023-08-30T03:58:22;3.43;;;3.13;;
13228;SDS011;6680;53.220;10.402;2023-08-30T04:00:51;3.13;;;2.90;;
13228;SDS011;6680;53.220;10.402;2023-08-30T04:03:17;3.03;;;2.83;;
13228;SDS011;6680;53.220;10.402;2023-08-30T04:05:44;3.43;;;3.13;;
13228;SDS011;6680;53.220;10.402;2023-08-30T04:08:11;2.90;;;2.70;;
13228;SDS011;6680;53.220;10.402;2023-08-30T04:10:38;2.83;;;2.63;;
13228;SDS011;6680;53.220;10.402;2023-08-30T04:13:07;2.97;;;2.60;;
13228;SDS011;6680;53.220;10.402;2023-08-30T04:15:34;3.23;;;2.93;;
13228;SDS011;6680;53.220;10.402;2023-08-30T04:18:04;3.80;;;2.80;;
13228;SDS011;6680;53.220;10.402;2023-08-30T04:20:32;2.97;;;2.77;;
13228;SDS011;6680;53.220;10.402;2023-08-30T04:22:59;2.93;;;2.73;;
13228;SDS011;6680;53.220;10.402;2023-08-30T04:25:27;5.57;;;3.10;;
13228;SDS011;6680;53.220;10.402;2023-08-30T04:27:55;2.90;;;2.70;;
13228;SDS011;6680;53.220;10.402;2023-08-30T04:30:22;3.87;;;3.03;;
13228;SDS011;6680;53.220;10.402;2023-08-30T04:32:48;4.40;;;3.20;;
13228;SDS011;6680;53.220;10.402;2023-08-30T04:35:17;3.13;;;2.87;;
13228;SDS011;6680;53.220;10.402;2023-08-30T04:37:44;4.83;;;3.40;;
13228;SDS011;6680;53.220;10.402;2023-08-30T04:40:10;3.60;;;2.90;;
13228;SDS011;6680;53.220;10.402;2023-08-30T04:42:38;3.53;;;3.23;;
13228;SDS011;6680;53.220;10.402;2023-08-30T04:45:06;3.27;;;2.97;;
13228;SDS011;6680;53.220;10.402;2023-08-30T04:47:34;4.57;;;3.60;;
13228;SDS011;6680;53.220;10.402;2023-08-30T04:50:02;3.43;;;3.13;;
13228;SDS011;6680;53.220;10.402;2023-08-30T04:52:30;3.10;;;2.90;;
13228;SDS011;6680;53.220;10.402;2023-08-30T04:54:57;3.10;;;2.87;;
13228;SDS011;6680;53.220;10.402;2023-08-30T04:57:24;3.57;;;3.17;;
13228;SDS011;6680;53.220;10.402;2023-08-30T04:59:51;5.87;;;3.33;;
13228;SDS011;6680;53.220;10.402;2023-08-30T05:02:18;3.63;;;3.20;;
13228;SDS011;6680;53.220;10.402;2023-08-30T05:04:45;3.17;;;2.83;;
13228;SDS011;6680;53.220;10.402;2023-08-30T05:07:11;3.23;;;2.93;;
13228;SDS011;6680;53.220;10.402;2023-08-30T05:09:40;6.20;;;3.50;;
13228;SDS011;6680;53.220;10.402;2023-08-30T05:12:07;4.17;;;3.07;;
13228;SDS011;6680;53.220;10.402;2023-08-30T05:14:34;3.37;;;2.90;;
13228;SDS011;6680;53.220;10.402;2023-08-30T05:17:01;3.37;;;3.07;;
13228;SDS011;6680;53.220;10.402;2023-08-30T05:19:28;4.10;;;3.57;;
13228;SDS011;6680;53.220;10.402;2023-08-30T05:21:55;3.70;;;3.40;;
13228;SDS011;6680;53.220;10.402;2023-08-30T05:24:22;4.33;;;3.73;;
13228;SDS011;6680;53.220;10.402;2023-08-30T05:26:50;3.90;;;3.50;;
13228;SDS011;6680;53.220;10.402;2023-08-30T05:29:17;3.47;;;3.17;;
13228;SDS011;6680;53.220;10.402;2023-08-30T05:31:44;3.90;;;3.50;;
13228;SDS011;6680;53.220;10.402;2023-08-30T05:34:11;3.70;;;3.40;;
13228;SDS011;6680;53.220;10.402;2023-08-30T05:36:38;4.27;;;3.87;;
13228;SDS011;6680;53.220;10.402;2023-08-30T05:39:06;4.30;;;3.83;;
13228;SDS011;6680;53.220;10.402;2023-08-30T05:41:32;3.80;;;3.37;;
13228;SDS011;6680;53.220;10.402;2023-08-30T05:44:01;4.87;;;3.47;;
13228;SDS011;6680;53.220;10.402;2023-08-30T05:46:27;4.37;;;3.97;;
13228;SDS011;6680;53.220;10.402;2023-08-30T05:48:54;3.40;;;3.10;;
13228;SDS011;6680;53.220;10.402;2023-08-30T05:51:21;4.03;;;3.63;;
13228;SDS011;6680;53.220;10.402;2023-08-30T05:53:48;3.93;;;3.13;;
13228;SDS011;6680;53.220;10.402;2023-08-30T05:56:15;3.80;;;2.97;;
13228;SDS011;6680;53.220;10.402;2023-08-30T05:58:42;3.50;;;3.17;;
13228;SDS011;6680;53.220;10.402;2023-08-30T06:01:10;4.07;;;3.40;;
13228;SDS011;6680;53.220;10.402;2023-08-30T06:03:37;4.30;;;3.23;;
13228;SDS011;6680;53.220;10.402;2023-08-30T06:06:04;3.23;;;2.80;;
13228;SDS011;6680;53.220;10.402;2023-08-30T06:08:31;3.57;;;3.20;;
13228;SDS011;6680;53.220;10.402;2023-08-30T06:10:58;3.33;;;2.80;;
13228;SDS011;6680;53.220;10.402;2023-08-30T06:13:24;3.67;;;3.10;;
13228;SDS011;6680;53.220;10.402;2023-08-30T06:15:51;3.13;;;2.73;;
13228;SDS011;6680;53.220;10.402;2023-08-30T06:18:19;7.87;;;3.57;;
13228;SDS011;6680;53.220;10.402;2023-08-30T06:20:46;4.40;;;3.83;;
13228;SDS011;6680;53.220;10.402;2023-08-30T06:23:14;3.93;;;3.33;;
13228;SDS011;6680;53.220;10.402;2023-08-30T06:25:41;3.63;;;3.27;;
13228;SDS011;6680;53.220;10.402;2023-08-30T06:28:08;4.00;;;3.40;;
13228;SDS011;6680;53.220;10.402;2023-08-30T06:30:35;3.70;;;3.27;;
13228;SDS011;6680;53.220;10.402;2023-08-30T06:33:03;4.00;;;3.60;;
13228;SDS011;6680;53.220;10.402;2023-08-30T06:35:31;3.97;;;3.27;;
13228;SDS011;6680;53.220;10.402;2023-08-30T06:37:58;5.37;;;3.40;;
13228;SDS011;6680;53.220;10.402;2023-08-30T06:40:25;3.73;;;3.37;;
13228;SDS011;6680;53.220;10.402;2023-08-30T06:42:52;4.90;;;3.27;;
13228;SDS011;6680;53.220;10.402;2023-08-30T06:45:19;3.20;;;2.90;;
13228;SDS011;6680;53.220;10.402;2023-08-30T06:47:45;3.87;;;3.20;;
13228;SDS011;6680;53.220;10.402;2023-08-30T06:50:14;4.27;;;2.60;;
13228;SDS011;6680;53.220;10.402;2023-08-30T06:52:42;3.43;;;3.13;;
13228;SDS011;6680;53.220;10.402;2023-08-30T06:55:09;3.40;;;3.10;;
13228;SDS011;6680;53.220;10.402;2023-08-30T06:57:36;3.40;;;3.07;;
13228;SDS011;6680;53.220;10.402;2023-08-30T07:00:03;2.83;;;2.60;;
13228;SDS011;6680;53.220;10.402;2023-08-30T07:02:32;5.03;;;3.40;;
13228;SDS011;6680;53.220;10.402;2023-08-30T07:05:00;4.00;;;3.60;;
13228;SDS011;6680;53.220;10.402;2023-08-30T07:07:29;3.47;;;3.17;;
13228;SDS011;6680;53.220;10.402;2023-08-30T07:09:57;3.47;;;3.17;;
13228;SDS011;6680;53.220;10.402;2023-08-30T07:12:25;3.73;;;3.43;;
13228;SDS011;6680;53.220;10.402;2023-08-30T07:14:52;4.17;;;3.03;;
13228;SDS011;6680;53.220;10.402;2023-08-30T07:17:19;3.47;;;3.17;;
13228;SDS011;6680;53.220;10.402;2023-08-30T07:19:45;3.80;;;3.40;;
13228;SDS011;6680;53.220;10.402;2023-08-30T07:22:12;3.20;;;2.90;;
13228;SDS011;6680;53.220;10.402;2023-08-30T07:24:41;3.23;;;2.93;;
13228;SDS011;6680;53.220;10.402;2023-08-30T07:27:09;3.40;;;3.10;;
13228;SDS011;6680;53.220;10.402;2023-08-30T07:29:37;4.93;;;2.90;;
13228;SDS011;6680;53.220;10.402;2023-08-30T07:32:05;3.80;;;3.20;;
13228;SDS011;6680;53.220;10.402;2023-08-30T07:34:32;3.70;;;3.40;;
13228;SDS011;6680;53.220;10.402;2023-08-30T07:36:59;3.73;;;3.30;;
13228;SDS011;6680;53.220;10.402;2023-08-30T07:39:26;4.07;;;3.67;;
13228;SDS011;6680;53.220;10.402;2023-08-30T07:41:52;4.00;;;3.67;;
13228;SDS011;6680;53.220;10.402;2023-08-30T07:44:21;3.57;;;3.27;;
13228;SDS011;6680;53.220;10.402;2023-08-30T07:46:47;3.70;;;3.40;;
13228;SDS011;6680;53.220;10.402;2023-08-30T07:49:14;3.37;;;3.10;;
13228;SDS011;6680;53.220;10.402;2023-08-30T07:51:41;5.13;;;3.47;;
13228;SDS011;6680;53.220;10.402;2023-08-30T07:54:08;3.77;;;3.37;;
13228;SDS011;6680;53.220;10.402;2023-08-30T07:56:35;4.77;;;3.37;;
13228;SDS011;6680;53.220;10.402;2023-08-30T07:59:02;3.67;;;3.10;;
13228;SDS011;6680;53.220;10.402;2023-08-30T08:01:30;3.53;;;3.23;;
13228;SDS011;6680;53.220;10.402;2023-08-30T08:06:32;4.63;;;3.77;;
13228;SDS011;6680;53.220;10.402;2023-08-30T08:08:59;4.47;;;4.07;;
13228;SDS011;6680;53.220;10.402;2023-08-30T08:11:26;4.70;;;3.70;;
13228;SDS011;6680;53.220;10.402;2023-08-30T08:13:52;4.47;;;3.80;;
13228;SDS011;6680;53.220;10.402;2023-08-30T08:16:19;3.93;;;3.57;;
13228;SDS011;6680;53.220;10.402;2023-08-30T08:18:47;5.53;;;3.83;;
13228;SDS011;6680;53.220;10.402;2023-08-30T08:21:15;4.20;;;3.80;;
13228;SDS011;6680;53.220;10.402;2023-08-30T08:23:42;4.47;;;4.03;;
13228;SDS011;6680;53.220;10.402;2023-08-30T08:26:09;5.87;;;4.27;;
13228;SDS011;6680;53.220;10.402;2023-08-30T08:28:36;4.90;;;4.20;;
13228;SDS011;6680;53.220;10.402;2023-08-30T08:31:03;3.77;;;3.30;;
13228;SDS011;6680;53.220;10.402;2023-08-30T08:33:30;4.70;;;3.60;;
13228;SDS011;6680;53.220;10.402;2023-08-30T08:35:59;5.77;;;4.27;;
13228;SDS011;6680;53.220;10.402;2023-08-30T08:38:26;3.80;;;2.90;;
13228;SDS011;6680;53.220;10.402;2023-08-30T08:40:53;5.47;;;4.10;;
13228;SDS011;6680;53.220;10.402;2023-08-30T08:43:28;3.73;;;3.23;;
13228;SDS011;6680;53.220;10.402;2023-08-30T08:45:57;4.17;;;3.50;;
13228;SDS011;6680;53.220;10.402;2023-08-30T08:48:27;4.63;;;3.37;;
13228;SDS011;6680;53.220;10.402;2023-08-30T08:50:55;6.27;;;3.93;;
13228;SDS011;6680;53.220;10.402;2023-08-30T08:53:24;3.83;;;3.50;;
13228;SDS011;6680;53.220;10.402;2023-08-30T08:55:51;3.33;;;3.03;;
13228;SDS011;6680;53.220;10.402;2023-08-30T08:58:19;4.40;;;3.60;;
13228;SDS011;6680;53.220;10.402;2023-08-30T09:00:46;3.63;;;3.27;;
13228;SDS011;6680;53.220;10.402;2023-08-30T09:03:13;4.90;;;3.67;;
13228;SDS011;6680;53.220;10.402;2023-08-30T09:05:40;4.17;;;3.37;;
13228;SDS011;6680;53.220;10.402;2023-08-30T09:08:08;4.30;;;3.13;;
13228;SDS011;6680;53.220;10.402;2023-08-30T09:10:39;8.93;;;3.53;;
13228;SDS011;6680;53.220;10.402;2023-08-30T09:13:06;3.47;;;3.17;;
13228;SDS011;6680;53.220;10.402;2023-08-30T09:15:33;4.97;;;2.93;;
13228;SDS011;6680;53.220;10.402;2023-08-30T09:18:02;3.37;;;3.07;;
13228;SDS011;6680;53.220;10.402;2023-08-30T09:20:29;4.47;;;3.13;;
13228;SDS011;6680;53.220;10.402;2023-08-30T09:22:56;3.50;;;3.10;;
13228;SDS011;6680;53.220;10.402;2023-08-30T09:25:23;3.53;;;3.10;;
13228;SDS011;6680;53.220;10.402;2023-08-30T09:27:52;3.10;;;2.80;;
13228;SDS011;6680;53.220;10.402;2023-08-30T09:30:24;3.40;;;3.00;;
13228;SDS011;6680;53.220;10.402;2023-08-30T09:35:26;4.37;;;3.30;;
13228;SDS011;6680;53.220;10.402;2023-08-30T09:37:53;4.07;;;3.00;;
13228;SDS011;6680;53.220;10.402;2023-08-30T09:40:20;3.43;;;2.80;;
13228;SDS011;6680;53.220;10.402;2023-08-30T09:42:47;3.30;;;2.70;;
13228;SDS011;6680;53.220;10.402;2023-08-30T09:45:18;4.77;;;3.30;;
13228;SDS011;6680;53.220;10.402;2023-08-30T09:47:47;5.23;;;3.40;;
13228;SDS011;6680;53.220;10.402;2023-08-30T09:50:16;7.57;;;3.87;;
13228;SDS011;6680;53.220;10.402;2023-08-30T09:52:45;4.27;;;3.23;;
13228;SDS011;6680;53.220;10.402;2023-08-30T09:55:12;3.60;;;3.30;;
13228;SDS011;6680;53.220;10.402;2023-08-30T09:57:40;2.67;;;2.47;;
13228;SDS011;6680;53.220;10.402;2023-08-30T10:00:08;4.20;;;3.13;;
13228;SDS011;6680;53.220;10.402;2023-08-30T10:02:38;4.13;;;3.23;;
13228;SDS011;6680;53.220;10.402;2023-08-30T10:05:08;3.83;;;3.43;;
13228;SDS011;6680;53.220;10.402;2023-08-30T10:07:35;4.20;;;3.80;;
13228;SDS011;6680;53.220;10.402;2023-08-30T10:10:03;5.50;;;3.70;;
13228;SDS011;6680;53.220;10.402;2023-08-30T10:12:31;3.23;;;2.93;;
13228;SDS011;6680;53.220;10.402;2023-08-30T10:14:58;3.33;;;3.03;;
13228;SDS011;6680;53.220;10.402;2023-08-30T10:17:26;3.53;;;3.23;;
13228;SDS011;6680;53.220;10.402;2023-08-30T10:19:56;3.70;;;2.77;;
13228;SDS011;6680;53.220;10.402;2023-08-30T10:22:23;6.27;;;3.43;;
13228;SDS011;6680;53.220;10.402;2023-08-30T10:24:53;4.73;;;3.20;;
13228;SDS011;6680;53.220;10.402;2023-08-30T10:27:23;3.80;;;3.50;;
13228;SDS011;6680;53.220;10.402;2023-08-30T10:29:52;3.53;;;3.23;;
13228;SDS011;6680;53.220;10.402;2023-08-30T10:32:20;4.77;;;4.30;;
13228;SDS011;6680;53.220;10.402;2023-08-30T10:34:48;4.00;;;3.50;;
13228;SDS011;6680;53.220;10.402;2023-08-30T10:37:21;4.17;;;3.67;;
13228;SDS011;6680;53.220;10.402;2023-08-30T10:39:49;4.37;;;3.67;;
13228;SDS011;6680;53.220;10.402;2023-08-30T10:42:16;5.83;;;4.27;;
13228;SDS011;6680;53.220;10.402;2023-08-30T10:44:46;4.20;;;3.23;;
13228;SDS011;6680;53.220;10.402;2023-08-30T10:47:18;5.27;;;4.77;;
13228;SDS011;6680;53.220;10.402;2023-08-30T10:49:46;4.97;;;4.47;;
13228;SDS011;6680;53.220;10.402;2023-08-30T10:52:13;5.73;;;4.13;;
13228;SDS011;6680;53.220;10.402;2023-08-30T10:54:41;10.53;;;5.83;;
13228;SDS011;6680;53.220;10.402;2023-08-30T10:57:12;6.53;;;4.63;;
13228;SDS011;6680;53.220;10.402;2023-08-30T10:59:39;4.43;;;4.03;;
13228;SDS011;6680;53.220;10.402;2023-08-30T11:02:06;5.13;;;4.63;;
13228;SDS011;6680;53.220;10.402;2023-08-30T11:04:38;7.50;;;4.60;;
13228;SDS011;6680;53.220;10.402;2023-08-30T11:07:07;4.70;;;4.13;;
13228;SDS011;6680;53.220;10.402;2023-08-30T11:09:36;6.70;;;4.83;;
13228;SDS011;6680;53.220;10.402;2023-08-30T11:12:07;5.20;;;3.60;;
13228;SDS011;6680;53.220;10.402;2023-08-30T11:14:34;4.97;;;4.37;;
13228;SDS011;6680;53.220;10.402;2023-08-30T11:17:01;4.27;;;3.87;;
13228;SDS011;6680;53.220;10.402;2023-08-30T11:19:29;5.57;;;3.80;;
13228;SDS011;6680;53.220;10.402;2023-08-30T11:21:57;4.43;;;3.93;;
13228;SDS011;6680;53.220;10.402;2023-08-30T11:24:24;5.77;;;3.73;;
13228;SDS011;6680;53.220;10.402;2023-08-30T11:26:54;3.33;;;3.03;;
13228;SDS011;6680;53.220;10.402;2023-08-30T11:29:22;5.00;;;4.00;;
13228;SDS011;6680;53.220;10.402;2023-08-30T11:31:49;4.30;;;3.40;;
13228;SDS011;6680;53.220;10.402;2023-08-30T11:34:16;4.63;;;3.13;;
13228;SDS011;6680;53.220;10.402;2023-08-30T11:36:47;4.53;;;4.03;;
13228;SDS011;6680;53.220;10.402;2023-08-30T11:39:15;3.47;;;3.17;;
13228;SDS011;6680;53.220;10.402;2023-08-30T11:41:43;3.50;;;3.03;;
13228;SDS011;6680;53.220;10.402;2023-08-30T11:44:10;3.40;;;2.60;;
13228;SDS011;6680;53.220;10.402;2023-08-30T11:46:38;2.67;;;2.47;;
13228;SDS011;6680;53.220;10.402;2023-08-30T11:49:05;5.20;;;3.43;;
13228;SDS011;6680;53.220;10.402;2023-08-30T11:51:32;6.23;;;3.27;;
13228;SDS011;6680;53.220;10.402;2023-08-30T11:53:59;3.10;;;2.80;;
13228;SDS011;6680;53.220;10.402;2023-08-30T11:56:28;3.20;;;2.90;;
13228;SDS011;6680;53.220;10.402;2023-08-30T11:58:56;3.30;;;3.00;;
13228;SDS011;6680;53.220;10.402;2023-08-30T12:01:23;3.93;;;3.50;;
13228;SDS011;6680;53.220;10.402;2023-08-30T12:03:51;2.60;;;2.40;;
13228;SDS011;6680;53.220;10.402;2023-08-30T12:06:18;4.67;;;3.00;;
13228;SDS011;6680;53.220;10.402;2023-08-30T12:08:44;3.30;;;3.00;;
13228;SDS011;6680;53.220;10.402;2023-08-30T12:11:18;2.30;;;2.10;;
13228;SDS011;6680;53.220;10.402;2023-08-30T12:13:45;2.70;;;2.30;;
13228;SDS011;6680;53.220;10.402;2023-08-30T12:16:14;3.37;;;2.93;;
13228;SDS011;6680;53.220;10.402;2023-08-30T12:18:42;2.43;;;2.23;;
13228;SDS011;6680;53.220;10.402;2023-08-30T12:21:12;3.10;;;2.67;;
13228;SDS011;6680;53.220;10.402;2023-08-30T12:23:39;3.33;;;2.53;;
13228;SDS011;6680;53.220;10.402;2023-08-30T12:26:07;3.20;;;3.00;;
13228;SDS011;6680;53.220;10.402;2023-08-30T12:28:35;3.03;;;2.40;;
13228;SDS011;6680;53.220;10.402;2023-08-30T12:31:03;5.37;;;3.23;;
13228;SDS011;6680;53.220;10.402;2023-08-30T12:33:30;3.83;;;2.80;;
13228;SDS011;6680;53.220;10.402;2023-08-30T12:35:57;3.80;;;3.33;;
13228;SDS011;6680;53.220;10.402;2023-08-30T12:38:26;3.20;;;2.90;;
13228;SDS011;6680;53.220;10.402;2023-08-30T12:40:53;2.83;;;2.57;;
13228;SDS011;6680;53.220;10.402;2023-08-30T12:43:23;3.77;;;2.67;;
13228;SDS011;6680;53.220;10.402;2023-08-30T12:45:53;3.63;;;2.43;;
13228;SDS011;6680;53.220;10.402;2023-08-30T12:48:20;3.60;;;2.40;;
13228;SDS011;6680;53.220;10.402;2023-08-30T12:50:48;3.30;;;3.10;;
13228;SDS011;6680;53.220;10.402;2023-08-30T12:53:15;3.40;;;3.07;;
13228;SDS011;6680;53.220;10.402;2023-08-30T12:55:44;3.53;;;3.03;;
13228;SDS011;6680;53.220;10.402;2023-08-30T12:58:10;2.90;;;2.60;;
13228;SDS011;6680;53.220;10.402;2023-08-30T13:00:39;3.30;;;3.00;;
13228;SDS011;6680;53.220;10.402;2023-08-30T13:03:06;3.23;;;2.93;;
13228;SDS011;6680;53.220;10.402;2023-08-30T13:05:33;3.93;;;2.57;;
13228;SDS011;6680;53.220;10.402;2023-08-30T13:08:01;3.43;;;2.80;;
13228;SDS011;6680;53.220;10.402;2023-08-30T13:10:28;3.30;;;3.00;;
13228;SDS011;6680;53.220;10.402;2023-08-30T13:12:57;2.70;;;2.50;;
13228;SDS011;6680;53.220;10.402;2023-08-30T13:15:23;3.77;;;2.77;;
13228;SDS011;6680;53.220;10.402;2023-08-30T13:17:50;2.83;;;2.60;;
13228;SDS011;6680;53.220;10.402;2023-08-30T13:20:18;3.00;;;2.47;;
13228;SDS011;6680;53.220;10.402;2023-08-30T13:22:45;2.90;;;2.60;;
13228;SDS011;6680;53.220;10.402;2023-08-30T13:25:12;5.17;;;3.20;;
13228;SDS011;6680;53.220;10.402;2023-08-30T13:27:39;5.07;;;3.53;;
13228;SDS011;6680;53.220;10.402;2023-08-30T13:30:07;3.53;;;3.13;;
13228;SDS011;6680;53.220;10.402;2023-08-30T13:32:35;3.20;;;2.90;;
13228;SDS011;6680;53.220;10.402;2023-08-30T13:35:02;3.20;;;2.90;;
13228;SDS011;6680;53.220;10.402;2023-08-30T13:37:29;4.17;;;3.77;;
13228;SDS011;6680;53.220;10.402;2023-08-30T13:39:55;4.00;;;3.70;;
13228;SDS011;6680;53.220;10.402;2023-08-30T13:42:22;3.67;;;3.00;;
13228;SDS011;6680;53.220;10.402;2023-08-30T13:44:52;3.63;;;3.33;;
13228;SDS011;6680;53.220;10.402;2023-08-30T13:47:20;3.70;;;3.40;;
13228;SDS011;6680;53.220;10.402;2023-08-30T13:49:47;4.30;;;3.73;;
13228;SDS011;6680;53.220;10.402;2023-08-30T13:52:14;4.20;;;3.47;;
13228;SDS011;6680;53.220;10.402;2023-08-30T13:54:41;3.53;;;3.23;;
13228;SDS011;6680;53.220;10.402;2023-08-30T13:57:08;4.73;;;3.57;;
13228;SDS011;6680;53.220;10.402;2023-08-30T13:59:35;4.23;;;3.53;;
13228;SDS011;6680;53.220;10.402;2023-08-30T14:02:02;3.73;;;3.40;;
13228;SDS011;6680;53.220;10.402;2023-08-30T14:04:31;3.50;;;3.20;;
13228;SDS011;6680;53.220;10.402;2023-08-30T14:07:01;4.07;;;3.70;;
13228;SDS011;6680;53.220;10.402;2023-08-30T14:09:28;7.00;;;3.70;;
13228;SDS011;6680;53.220;10.402;2023-08-30T14:11:55;3.87;;;3.47;;
13228;SDS011;6680;53.220;10.402;2023-08-30T14:14:22;4.03;;;3.60;;
13228;SDS011;6680;53.220;10.402;2023-08-30T14:16:49;3.00;;;2.80;;
13228;SDS011;6680;53.220;10.402;2023-08-30T14:19:16;4.37;;;3.20;;
13228;SDS011;6680;53.220;10.402;2023-08-30T14:21:44;3.40;;;3.10;;
13228;SDS011;6680;53.220;10.402;2023-08-30T14:24:11;3.17;;;2.87;;
13228;SDS011;6680;53.220;10.402;2023-08-30T14:26:38;2.70;;;2.50;;
13228;SDS011;6680;53.220;10.402;2023-08-30T14:29:05;3.97;;;3.23;;
13228;SDS011;6680;53.220;10.402;2023-08-30T14:31:31;4.57;;;2.93;;
13228;SDS011;6680;53.220;10.402;2023-08-30T14:33:58;3.57;;;3.27;;
13228;SDS011;6680;53.220;10.402;2023-08-30T14:36:25;6.23;;;2.87;;
13228;SDS011;6680;53.220;10.402;2023-08-30T14:38:53;5.10;;;2.80;;
13228;SDS011;6680;53.220;10.402;2023-08-30T14:41:20;3.57;;;3.20;;
13228;SDS011;6680;53.220;10.402;2023-08-30T14:43:46;3.00;;;2.70;;
13228;SDS011;6680;53.220;10.402;2023-08-30T14:46:13;3.70;;;3.07;;
13228;SDS011;6680;53.220;10.402;2023-08-30T14:48:42;3.67;;;2.60;;
13228;SDS011;6680;53.220;10.402;2023-08-30T14:51:09;3.70;;;3.40;;
13228;SDS011;6680;53.220;10.402;2023-08-30T14:53:36;3.23;;;2.80;;
13228;SDS011;6680;53.220;10.402;2023-08-30T14:56:04;3.57;;;3.17;;